createdAt,value
2019-05-29T00:02:16.822Z,72.26
2019-05-29T00:04:43.197Z,72.39
2019-05-29T00:07:10.138Z,72.40
2019-05-29T00:09:35.825Z,72.81
2019-05-29T00:12:02.233Z,72.91
2019-05-29T00:14:28.524Z,72.86
2019-05-29T00:16:54.823Z,73.04
2019-05-29T00:19:21.155Z,73.50
2019-05-29T00:21:47.464Z,73.54
2019-05-29T00:24:13.864Z,73.66
2019-05-29T00:26:40.175Z,73.24
2019-05-29T00:29:07.506Z,73.56
2019-05-29T00:31:32.822Z,73.78
2019-05-29T00:33:59.131Z,73.22
2019-05-29T00:36:25.472Z,72.47
2019-05-29T00:38:51.768Z,72.58
2019-05-29T00:41:18.099Z,73.34
2019-05-29T00:43:44.410Z,73.75
2019-05-29T00:46:11.366Z,73.89
2019-05-29T00:48:37.062Z,74.35
2019-05-29T00:51:03.390Z,73.94
2019-05-29T00:53:29.715Z,73.07
2019-05-29T00:55:56.028Z,73.38
2019-05-29T00:58:22.361Z,72.62
2019-05-29T01:00:48.669Z,72.77
2019-05-29T01:03:15.852Z,72.82
2019-05-29T01:05:41.298Z,73.12
2019-05-29T01:08:07.602Z,73.49
2019-05-29T01:10:33.944Z,73.07
2019-05-29T01:13:00.267Z,72.73
2019-05-29T01:15:26.568Z,72.45
2019-05-29T01:17:52.897Z,72.36
2019-05-29T01:20:20.017Z,72.90
2019-05-29T01:22:45.552Z,73.22
2019-05-29T01:25:12.409Z,73.23
2019-05-29T01:27:38.217Z,73.52
2019-05-29T01:30:04.529Z,73.83
2019-05-29T01:32:30.837Z,73.86
2019-05-29T01:34:57.167Z,73.21
2019-05-29T01:37:24.362Z,72.89
2019-05-29T01:39:49.814Z,73.80
2019-05-29T01:42:17.240Z,74.33
2019-05-29T01:44:42.433Z,74.78
2019-05-29T01:47:08.763Z,73.69
2019-05-29T01:49:35.193Z,74.29
2019-05-29T01:52:01.377Z,74.10
2019-05-29T01:54:27.990Z,73.61
2019-05-29T01:56:54.021Z,73.15
2019-05-29T01:59:20.340Z,73.55
2019-05-29T02:01:46.651Z,74.12
2019-05-29T02:04:12.982Z,74.88
2019-05-29T02:06:39.300Z,74.55
2019-05-29T02:09:05.630Z,74.76
2019-05-29T02:11:32.363Z,74.21
2019-05-29T02:13:58.263Z,73.85
2019-05-29T02:16:24.917Z,73.97
2019-05-29T02:18:50.919Z,74.19
2019-05-29T02:21:18.015Z,73.60
2019-05-29T02:23:43.543Z,74.22
2019-05-29T02:26:09.859Z,74.79
2019-05-29T02:28:36.188Z,75.27
2019-05-29T02:31:02.523Z,75.38
2019-05-29T02:33:28.832Z,75.80
2019-05-29T02:35:55.169Z,76.20
2019-05-29T02:38:22.979Z,76.56
2019-05-29T02:40:47.806Z,76.38
2019-05-29T02:43:14.112Z,76.67
2019-05-29T02:45:53.917Z,76.96
2019-05-29T02:48:06.765Z,76.46
2019-05-29T02:50:33.054Z,76.62
2019-05-29T02:52:59.397Z,76.59
2019-05-29T02:55:26.900Z,77.31
2019-05-29T02:57:52.049Z,77.75
2019-05-29T03:00:18.345Z,77.46
2019-05-29T03:02:44.668Z,77.75
2019-05-29T03:05:11.006Z,77.18
2019-05-29T03:07:37.344Z,76.59
2019-05-29T03:10:03.664Z,76.42
2019-05-29T03:12:31.338Z,75.67
2019-05-29T03:14:56.313Z,75.28
2019-05-29T03:17:23.660Z,75.34
2019-05-29T03:19:48.933Z,75.38
2019-05-29T03:22:15.237Z,75.12
2019-05-29T03:24:41.564Z,75.02
2019-05-29T03:27:07.868Z,76.31
2019-05-29T03:29:34.420Z,77.66
2019-05-29T03:32:00.507Z,79.11
2019-05-29T03:34:28.478Z,80.75
2019-05-29T03:36:53.157Z,81.41
2019-05-29T03:39:19.475Z,81.83
2019-05-29T03:41:45.801Z,81.94
2019-05-29T03:44:12.140Z,81.77
2019-05-29T03:46:44.589Z,82.08
2019-05-29T03:49:04.752Z,82.89
2019-05-29T03:51:32.557Z,81.95
2019-05-29T03:53:57.411Z,82.39
2019-05-29T03:56:23.742Z,82.38
2019-05-29T03:58:50.078Z,82.91
2019-05-29T04:01:16.516Z,83.16
2019-05-29T04:03:42.719Z,83.34
2019-05-29T04:06:09.045Z,83.58
2019-05-29T04:08:35.823Z,83.40
2019-05-29T04:11:01.685Z,82.17
2019-05-29T04:13:29.478Z,81.26
2019-05-29T04:15:54.313Z,80.57
2019-05-29T04:18:20.824Z,80.25
2019-05-29T04:20:46.959Z,80.90
2019-05-29T04:23:13.319Z,80.82
2019-05-29T04:25:42.646Z,80.86
2019-05-29T04:28:05.937Z,80.31
2019-05-29T04:30:32.269Z,80.81
2019-05-29T04:32:58.575Z,81.28
2019-05-29T04:35:24.904Z,80.90
2019-05-29T04:37:51.218Z,79.21
2019-05-29T04:40:17.549Z,79.14
2019-05-29T04:42:43.849Z,79.15
2019-05-29T04:45:10.219Z,78.42
2019-05-29T04:47:37.335Z,77.21
2019-05-29T04:50:02.823Z,77.32
2019-05-29T04:52:29.236Z,76.71
2019-05-29T04:54:55.535Z,76.24
2019-05-29T04:57:21.828Z,75.90
2019-05-29T04:59:48.201Z,75.47
2019-05-29T05:02:14.505Z,74.26
2019-05-29T05:04:41.007Z,73.96
2019-05-29T05:07:07.343Z,72.28
2019-05-29T05:09:33.659Z,70.23
2019-05-29T05:12:00.233Z,69.82
2019-05-29T05:14:26.537Z,68.97
2019-05-29T05:16:52.861Z,67.26
2019-05-29T05:19:19.177Z,66.34
2019-05-29T05:21:45.505Z,66.74
2019-05-29T05:24:11.815Z,65.73
2019-05-29T05:26:38.416Z,65.23
2019-05-29T05:29:04.456Z,60.88
2019-05-29T05:31:30.774Z,55.21
2019-05-29T05:33:57.108Z,52.13
2019-05-29T05:36:23.408Z,50.67
2019-05-29T05:38:49.800Z,49.74
2019-05-29T05:41:16.107Z,53.28
2019-05-29T05:43:42.443Z,52.65
2019-05-29T05:46:08.767Z,50.64
2019-05-29T05:48:35.178Z,49.47
2019-05-29T05:51:01.455Z,46.85
2019-05-29T05:53:27.760Z,45.33
2019-05-29T05:55:54.091Z,43.21
2019-05-29T05:58:20.405Z,43.74
2019-05-29T06:00:46.746Z,42.74
2019-05-29T06:03:13.054Z,41.69
2019-05-29T06:05:40.192Z,41.23
2019-05-29T06:08:05.679Z,41.38
2019-05-29T06:10:32.119Z,42.57
2019-05-29T06:12:58.352Z,43.40
2019-05-29T06:15:24.788Z,43.97
2019-05-29T06:18:10.117Z,44.35
2019-05-29T06:20:17.329Z,43.29
2019-05-29T06:22:43.761Z,42.04
2019-05-29T06:25:09.997Z,42.71
2019-05-29T06:27:37.091Z,42.91
2019-05-29T06:30:03.611Z,42.43
2019-05-29T06:32:29.441Z,42.72
2019-05-29T06:34:55.896Z,42.61
2019-05-29T06:37:22.217Z,41.14
2019-05-29T06:39:48.528Z,43.05
2019-05-29T06:42:14.872Z,41.06
2019-05-29T06:44:41.981Z,41.76
2019-05-29T06:47:07.563Z,42.17
2019-05-29T06:49:33.955Z,42.84
2019-05-29T06:52:00.203Z,42.98
2019-05-29T06:54:26.513Z,42.18
2019-05-29T06:56:52.838Z,41.89
2019-05-29T06:59:19.164Z,40.46
2019-05-29T07:01:45.495Z,40.87
2019-05-29T07:04:12.662Z,42.52
2019-05-29T07:06:38.564Z,43.57
2019-05-29T07:09:04.639Z,42.97
2019-05-29T07:11:30.927Z,43.31
2019-05-29T07:13:57.313Z,43.48
2019-05-29T07:16:23.643Z,42.68
2019-05-29T07:19:23.825Z,41.99
2019-05-29T07:21:16.286Z,41.62
2019-05-29T07:23:46.129Z,40.72
2019-05-29T07:26:08.955Z,40.58
2019-05-29T07:28:35.259Z,42.03
2019-05-29T07:31:03.731Z,43.43
2019-05-29T07:33:27.922Z,44.14
2019-05-29T07:35:54.283Z,44.04
2019-05-29T07:38:20.630Z,44.23
2019-05-29T07:40:48.106Z,43.46
2019-05-29T07:43:13.274Z,41.90
2019-05-29T07:45:40.584Z,40.88
2019-05-29T07:48:05.942Z,40.37
2019-05-29T07:50:32.274Z,39.84
2019-05-29T07:52:58.634Z,39.12
2019-05-29T07:55:24.959Z,38.59
2019-05-29T07:57:51.263Z,39.13
2019-05-29T08:00:17.602Z,40.18
2019-05-29T08:02:45.103Z,39.80
2019-05-29T08:05:10.311Z,40.12
2019-05-29T08:07:36.680Z,39.00
2019-05-29T08:10:02.988Z,38.83
2019-05-29T08:12:29.326Z,38.35
2019-05-29T08:14:55.650Z,37.90
2019-05-29T08:17:21.974Z,38.49
2019-05-29T08:20:05.381Z,38.63
2019-05-29T08:22:14.604Z,40.18
2019-05-29T08:24:42.460Z,39.64
2019-05-29T08:27:07.251Z,39.13
2019-05-29T08:29:33.569Z,38.99
2019-05-29T08:31:59.877Z,38.75
2019-05-29T08:34:26.203Z,38.34
2019-05-29T08:37:04.776Z,36.87
2019-05-29T08:39:33.882Z,37.47
2019-05-29T08:41:56.159Z,37.34
2019-05-29T08:44:11.515Z,38.91
2019-05-29T08:46:37.863Z,40.50
2019-05-29T08:49:04.183Z,39.07
2019-05-29T08:51:30.484Z,37.76
2019-05-29T08:53:56.826Z,38.05
2019-05-29T08:56:23.191Z,38.02
2019-05-29T08:58:50.618Z,38.95
2019-05-29T09:01:15.874Z,38.78
2019-05-29T09:03:42.837Z,37.34
2019-05-29T09:06:10.383Z,36.39
2019-05-29T09:08:34.972Z,36.73
2019-05-29T09:11:01.304Z,37.51
2019-05-29T09:13:27.617Z,39.40
2019-05-29T09:15:53.951Z,40.95
2019-05-29T09:18:21.523Z,38.73
2019-05-29T09:21:01.858Z,36.88
2019-05-29T09:23:12.886Z,38.16
2019-05-29T09:25:39.223Z,38.34
2019-05-29T09:28:05.548Z,39.09
2019-05-29T09:30:31.901Z,37.97
2019-05-29T09:32:58.253Z,36.71
2019-05-29T09:35:25.082Z,38.13
2019-05-29T09:37:50.880Z,38.72
2019-05-29T09:40:17.209Z,36.84
2019-05-29T09:42:43.518Z,36.43
2019-05-29T09:45:09.944Z,34.44
2019-05-29T09:47:36.209Z,34.37
2019-05-29T09:50:02.546Z,34.26
2019-05-29T09:52:30.854Z,33.47
2019-05-29T09:54:56.073Z,35.41
2019-05-29T09:57:21.511Z,36.63
2019-05-29T09:59:47.829Z,38.03
2019-05-29T10:02:14.169Z,39.79
2019-05-29T10:04:40.470Z,40.84
2019-05-29T10:07:06.862Z,41.07
2019-05-29T10:09:33.181Z,40.96
2019-05-29T10:12:03.449Z,41.64
2019-05-29T10:14:25.831Z,42.00
2019-05-29T10:16:52.138Z,41.85
2019-05-29T10:19:18.572Z,42.13
2019-05-29T10:21:47.344Z,42.29
2019-05-29T10:24:11.326Z,42.20
2019-05-29T10:26:37.642Z,40.73
2019-05-29T10:29:08.634Z,37.64
2019-05-29T10:31:30.279Z,36.68
2019-05-29T10:33:56.587Z,37.86
2019-05-29T10:36:23.098Z,38.67
2019-05-29T10:38:50.608Z,38.43
2019-05-29T10:41:15.669Z,38.40
2019-05-29T10:43:42.929Z,39.88
2019-05-29T10:46:08.303Z,40.46
2019-05-29T10:48:34.700Z,40.35
2019-05-29T10:51:00.960Z,40.77
2019-05-29T10:53:27.334Z,40.75
2019-05-29T10:55:54.925Z,41.04
2019-05-29T10:58:19.956Z,39.33
2019-05-29T11:00:47.081Z,37.05
2019-05-29T11:03:12.618Z,38.21
2019-05-29T11:05:38.952Z,38.47
2019-05-29T11:08:05.287Z,38.65
2019-05-29T11:10:31.610Z,39.39
2019-05-29T11:12:57.915Z,39.69
2019-05-29T11:15:24.263Z,39.80
2019-05-29T11:17:51.379Z,39.15
2019-05-29T11:20:16.905Z,40.44
2019-05-29T11:22:43.239Z,40.02
2019-05-29T11:25:22.501Z,40.85
2019-05-29T11:27:35.894Z,41.10
2019-05-29T11:30:02.206Z,40.77
2019-05-29T11:32:28.548Z,40.91
2019-05-29T11:34:55.549Z,41.44
2019-05-29T11:37:21.215Z,41.27
2019-05-29T11:39:47.545Z,42.32
2019-05-29T11:42:27.025Z,41.74
2019-05-29T11:44:40.204Z,41.03
2019-05-29T11:47:06.617Z,40.66
2019-05-29T11:49:32.924Z,40.28
2019-05-29T11:52:21.689Z,39.94
2019-05-29T11:54:25.581Z,39.59
2019-05-29T11:56:53.602Z,38.70
2019-05-29T11:59:18.283Z,37.79
2019-05-29T12:01:50.050Z,36.97
2019-05-29T12:04:24.858Z,36.79
2019-05-29T12:06:37.314Z,35.74
2019-05-29T12:09:03.588Z,37.24
2019-05-29T12:11:29.996Z,38.24
2019-05-29T12:13:57.910Z,38.45
2019-05-29T12:16:22.649Z,38.46
2019-05-29T12:18:48.975Z,38.88
2019-05-29T12:21:15.293Z,39.08
2019-05-29T12:23:41.625Z,39.11
2019-05-29T12:26:21.815Z,39.82
2019-05-29T12:28:34.285Z,39.81
2019-05-29T12:31:01.577Z,39.52
2019-05-29T12:33:26.975Z,38.41
2019-05-29T12:35:53.298Z,37.77
2019-05-29T12:38:19.616Z,37.91
2019-05-29T12:40:45.946Z,36.94
2019-05-29T12:43:25.923Z,37.06
2019-05-29T12:45:38.561Z,37.01
2019-05-29T12:48:11.667Z,36.64
2019-05-29T12:50:34.384Z,35.68
2019-05-29T12:52:57.773Z,36.69
2019-05-29T12:55:23.896Z,37.03
2019-05-29T12:57:50.205Z,37.78
2019-05-29T13:00:16.543Z,38.30
2019-05-29T13:02:42.872Z,38.22
2019-05-29T13:05:18.017Z,37.47
2019-05-29T13:07:35.502Z,37.85
2019-05-29T13:10:02.804Z,37.93
2019-05-29T13:12:28.145Z,37.87
2019-05-29T13:14:54.522Z,37.64
2019-05-29T13:17:20.789Z,37.56
2019-05-29T13:19:47.089Z,37.93
2019-05-29T13:22:13.419Z,38.22
2019-05-29T13:24:39.828Z,38.68
2019-05-29T13:27:06.349Z,38.80
2019-05-29T13:29:32.504Z,38.89
2019-05-29T13:32:00.130Z,38.90
2019-05-29T13:34:25.160Z,39.28
2019-05-29T13:36:51.627Z,39.10
2019-05-29T13:39:17.962Z,38.01
2019-05-29T13:41:44.167Z,38.43
2019-05-29T13:44:10.497Z,37.53
2019-05-29T13:46:36.814Z,37.46
2019-05-29T13:49:03.160Z,37.46
2019-05-29T13:51:29.460Z,40.25
2019-05-29T13:54:03.572Z,41.78
2019-05-29T13:56:24.358Z,42.12
2019-05-29T13:58:48.413Z,42.12
2019-05-29T14:01:14.737Z,42.21
2019-05-29T14:03:41.060Z,42.84
2019-05-29T14:06:07.944Z,43.14
2019-05-29T14:08:33.687Z,42.72
2019-05-29T14:11:00.886Z,43.36
2019-05-29T14:13:26.320Z,43.61
2019-05-29T14:15:52.650Z,43.13
2019-05-29T14:18:18.959Z,43.28
2019-05-29T14:20:45.293Z,42.82
2019-05-29T14:23:11.847Z,42.91
2019-05-29T14:25:37.932Z,43.11
2019-05-29T14:28:04.562Z,42.56
2019-05-29T14:30:30.572Z,42.15
2019-05-29T14:32:56.897Z,42.40
2019-05-29T14:35:23.198Z,41.92
2019-05-29T14:37:49.534Z,42.06
2019-05-29T14:40:15.950Z,42.22
2019-05-29T14:42:42.269Z,42.75
2019-05-29T14:45:08.626Z,42.69
2019-05-29T14:47:34.903Z,43.21
2019-05-29T14:50:02.526Z,43.21
2019-05-29T14:52:27.558Z,43.37
2019-05-29T14:54:53.865Z,42.66
2019-05-29T14:57:25.864Z,42.20
2019-05-29T14:59:46.515Z,42.09
2019-05-29T15:02:22.955Z,42.53
2019-05-29T15:04:39.188Z,42.59
2019-05-29T15:07:05.778Z,42.51
2019-05-29T15:09:31.841Z,42.64
2019-05-29T15:11:58.773Z,42.16
2019-05-29T15:14:25.095Z,42.11
2019-05-29T15:16:51.424Z,42.14
2019-05-29T15:19:17.758Z,42.27
2019-05-29T15:21:44.040Z,42.25
2019-05-29T15:24:11.516Z,43.30
2019-05-29T15:26:36.683Z,44.37
2019-05-29T15:29:04.150Z,44.83
2019-05-29T15:31:30.480Z,44.98
2019-05-29T15:33:56.799Z,45.05
2019-05-29T15:36:23.124Z,45.15
2019-05-29T15:38:49.436Z,44.95
2019-05-29T15:41:16.818Z,45.34
2019-05-29T15:43:42.077Z,45.69
2019-05-29T15:46:10.167Z,46.38
2019-05-29T15:48:34.747Z,47.42
2019-05-29T15:51:01.058Z,47.82
2019-05-29T15:53:27.409Z,47.59
2019-05-29T15:55:53.710Z,48.24
2019-05-29T15:58:20.063Z,48.74
2019-05-29T16:00:46.358Z,48.68
2019-05-29T16:03:13.611Z,48.09
2019-05-29T16:05:39.019Z,48.18
2019-05-29T16:08:05.355Z,48.56
2019-05-29T16:10:31.717Z,48.63
2019-05-29T16:12:57.985Z,48.84
2019-05-29T16:15:24.316Z,48.47
2019-05-29T16:17:50.625Z,48.50
2019-05-29T16:20:16.954Z,48.81
2019-05-29T16:22:43.273Z,49.49
2019-05-29T16:25:10.737Z,48.96
2019-05-29T16:27:35.897Z,49.39
2019-05-29T16:30:02.206Z,49.27
2019-05-29T16:32:28.565Z,49.19
2019-05-29T16:34:54.867Z,48.76
2019-05-29T16:37:21.931Z,48.94
2019-05-29T16:39:47.531Z,48.76
2019-05-29T16:42:14.012Z,49.08
2019-05-29T16:44:40.185Z,49.73
2019-05-29T16:47:06.502Z,50.10
2019-05-29T16:49:32.813Z,50.29
2019-05-29T16:51:59.141Z,50.22
2019-05-29T16:54:25.478Z,50.66
2019-05-29T16:56:51.789Z,50.70
2019-05-29T16:59:19.127Z,50.90
2019-05-29T17:01:44.425Z,51.17
2019-05-29T17:04:10.789Z,51.19
2019-05-29T17:06:37.122Z,51.42
2019-05-29T17:09:03.458Z,51.60
2019-05-29T17:11:29.754Z,51.55
2019-05-29T17:13:56.080Z,51.93
2019-05-29T17:16:22.675Z,52.43
2019-05-29T17:18:49.000Z,52.72
2019-05-29T17:21:16.428Z,52.62
2019-05-29T17:23:41.664Z,52.79
2019-05-29T17:26:11.003Z,53.02
2019-05-29T17:28:34.404Z,53.22
2019-05-29T17:31:02.363Z,53.87
2019-05-29T17:33:27.044Z,54.24
2019-05-29T17:35:53.354Z,54.92
2019-05-29T17:38:21.105Z,55.26
2019-05-29T17:40:46.068Z,55.29
2019-05-29T17:43:12.532Z,55.59
2019-05-29T17:45:38.827Z,55.74
2019-05-29T17:48:05.135Z,56.41
2019-05-29T17:50:31.558Z,56.55
2019-05-29T17:52:57.903Z,56.75
2019-05-29T17:55:24.943Z,56.55
2019-05-29T17:57:50.728Z,56.52
2019-05-29T18:00:17.997Z,56.48
2019-05-29T18:02:51.841Z,56.90
2019-05-29T18:05:09.785Z,57.11
2019-05-29T18:07:36.103Z,57.23
2019-05-29T18:10:02.427Z,57.09
2019-05-29T18:12:28.762Z,57.26
2019-05-29T18:14:55.092Z,57.46
2019-05-29T18:17:21.458Z,57.36
2019-05-29T18:19:47.730Z,57.35
2019-05-29T18:22:14.044Z,57.45
2019-05-29T18:24:40.370Z,57.74
2019-05-29T18:27:06.710Z,57.72
2019-05-29T18:29:33.069Z,58.03
2019-05-29T18:31:59.406Z,58.53
2019-05-29T18:34:27.015Z,59.08
2019-05-29T18:36:52.050Z,60.43
2019-05-29T18:39:18.375Z,61.26
2019-05-29T18:41:44.709Z,61.95
2019-05-29T18:44:11.035Z,61.88
2019-05-29T18:46:38.180Z,62.48
2019-05-29T18:49:03.769Z,62.95
2019-05-29T18:51:30.106Z,63.80
2019-05-29T18:53:56.395Z,64.46
2019-05-29T18:56:23.873Z,64.50
2019-05-29T18:58:49.043Z,64.92
2019-05-29T19:01:15.362Z,64.94
2019-05-29T19:03:41.695Z,65.45
2019-05-29T19:06:08.021Z,65.57
2019-05-29T19:08:34.334Z,65.96
2019-05-29T19:11:00.667Z,65.16
2019-05-29T19:13:27.940Z,65.51
2019-05-29T19:15:53.272Z,65.98
2019-05-29T19:18:19.613Z,66.16
2019-05-29T19:20:45.925Z,66.35
2019-05-29T19:23:12.748Z,66.54
2019-05-29T19:25:39.071Z,66.88
2019-05-29T19:28:05.504Z,67.45
2019-05-29T19:30:32.953Z,67.17
2019-05-29T19:32:58.156Z,67.46
2019-05-29T19:35:25.422Z,68.52
2019-05-29T19:37:50.806Z,68.58
2019-05-29T19:40:17.144Z,67.93
2019-05-29T19:42:43.451Z,68.15
2019-05-29T19:45:09.784Z,68.45
2019-05-29T19:47:36.082Z,68.80
2019-05-29T19:50:02.402Z,69.02
2019-05-29T19:52:29.066Z,69.28
2019-05-29T19:54:55.030Z,69.22
2019-05-29T19:57:21.362Z,68.88
2019-05-29T19:59:47.670Z,68.86
2019-05-29T20:02:13.995Z,68.56
2019-05-29T20:04:40.338Z,68.86
2019-05-29T20:07:06.660Z,67.99
2019-05-29T20:09:33.349Z,68.29
2019-05-29T20:11:59.307Z,67.77
2019-05-29T20:14:25.655Z,67.95
2019-05-29T20:16:51.966Z,67.59
2019-05-29T20:19:18.268Z,66.70
2019-05-29T20:21:44.575Z,66.42
2019-05-29T20:24:10.892Z,66.40
2019-05-29T20:26:37.362Z,66.02
2019-05-29T20:29:03.604Z,65.76
2019-05-29T20:31:30.437Z,65.50
2019-05-29T20:33:56.291Z,65.29
2019-05-29T20:36:22.608Z,65.36
2019-05-29T20:38:48.929Z,65.13
2019-05-29T20:41:15.255Z,65.18
2019-05-29T20:43:41.921Z,65.58
2019-05-29T20:46:07.912Z,65.35
2019-05-29T20:48:34.597Z,65.78
2019-05-29T20:51:00.541Z,65.32
2019-05-29T20:53:26.860Z,66.45
2019-05-29T20:55:53.191Z,65.54
2019-05-29T20:58:24.623Z,65.57
2019-05-29T21:00:45.820Z,65.32
2019-05-29T21:03:12.151Z,65.59
2019-05-29T21:05:38.711Z,65.51
2019-05-29T21:08:04.787Z,65.67
2019-05-29T21:10:31.095Z,66.06
2019-05-29T21:12:57.420Z,66.02
2019-05-29T21:15:23.736Z,65.88
2019-05-29T21:17:50.074Z,65.99
2019-05-29T21:20:16.406Z,66.07
2019-05-29T21:22:43.008Z,65.67
2019-05-29T21:25:13.511Z,65.77
2019-05-29T21:27:35.400Z,65.40
2019-05-29T21:30:01.745Z,65.78
2019-05-29T21:32:28.057Z,65.64
2019-05-29T21:34:54.397Z,66.01
2019-05-29T21:37:20.680Z,65.66
2019-05-29T21:39:47.013Z,65.56
2019-05-29T21:42:13.387Z,65.78
2019-05-29T21:44:40.675Z,65.76
2019-05-29T21:47:06.046Z,65.90
2019-05-29T21:49:32.363Z,65.85
2019-05-29T21:51:58.669Z,65.87
2019-05-29T21:54:25.002Z,65.68
2019-05-29T21:56:51.323Z,65.92
2019-05-29T21:59:17.653Z,65.98
2019-05-29T22:01:44.225Z,66.16
2019-05-29T22:04:10.302Z,66.30
2019-05-29T22:06:36.627Z,66.34
2019-05-29T22:09:02.931Z,66.20
2019-05-29T22:11:29.272Z,66.30
2019-05-29T22:13:56.546Z,66.42
2019-05-29T22:16:21.906Z,66.26
2019-05-29T22:18:48.205Z,66.28
2019-05-29T22:21:14.518Z,65.87
2019-05-29T22:23:40.849Z,66.11
2019-05-29T22:26:07.157Z,65.77
2019-05-29T22:28:33.483Z,65.70
2019-05-29T22:30:59.820Z,66.20
2019-05-29T22:33:26.121Z,66.09
2019-05-29T22:35:54.031Z,66.23
2019-05-29T22:38:18.756Z,66.25
2019-05-29T22:40:45.066Z,66.46
2019-05-29T22:43:11.406Z,66.09
2019-05-29T22:45:37.713Z,66.15
2019-05-29T22:48:04.042Z,66.07
2019-05-29T22:50:30.396Z,66.20
2019-05-29T22:52:57.786Z,66.18
2019-05-29T22:55:23.036Z,66.12
2019-05-29T22:57:49.475Z,65.89
2019-05-29T23:00:15.798Z,66.33
2019-05-29T23:02:42.099Z,66.27
2019-05-29T23:05:08.426Z,66.27
2019-05-29T23:07:34.729Z,66.08
2019-05-29T23:10:01.051Z,66.16
2019-05-29T23:12:27.394Z,65.52
2019-05-29T23:14:54.427Z,65.63
2019-05-29T23:17:20.024Z,65.75
2019-05-29T23:19:46.356Z,65.84
2019-05-29T23:22:12.660Z,66.00
2019-05-29T23:24:39.000Z,65.82
2019-05-29T23:27:05.339Z,66.13
2019-05-29T23:29:47.694Z,66.12
2019-05-29T23:31:58.923Z,65.88
2019-05-29T23:34:24.308Z,65.83
2019-05-29T23:36:50.654Z,65.65
2019-05-29T23:39:16.947Z,65.70
2019-05-29T23:41:43.281Z,65.80
2019-05-29T23:44:09.610Z,65.77
2019-05-29T23:46:35.934Z,66.14
2019-05-29T23:49:02.251Z,65.69
2019-05-29T23:51:28.573Z,65.64
2019-05-29T23:53:55.630Z,65.26
2019-05-29T23:56:21.201Z,65.32
2019-05-29T23:58:47.522Z,66.20
